Otho, IA (50569)

09:39 AM CDT am 28. August 2015 (GMT -0500)
Fort Dodge Regional | | Change Station
CLOSE
Current Station
Flughafen
Location: Fort Dodge,
Höhe: 1165 ft
Wetterstationen in der Umgebung

Höhe 1165 ft 42.55 °N, 94.19 °W | Updated 4 minutes ago

Regen
Regen
63 °F
gefühlte 63 °F
N
17
Wind Wechselnd Wind aus Ost-Südost
Gusts 22 mph

Heute
Max. -- | schwach -- °F
--% Regenrisiko
Gestern
Max. -- | schwach -- °F
Precip. -- inch
6:37 AM 7:57 PM
Zweites Viertel, 98% visible
Druck 29.90 inch
Sichtweite 3.0 Meilen
Wolken Few 800 ft
Wolkig 1600 ft
Bedeckt 2100 ft
Taupunkt 59 °F
Feuchtigkeit 88%
Regen 4.59 inch
Schneehöhe Nicht verfügbar..
UV 1 von 12
Pollen 1.10 von 12
Luftqualität Nicht verfügbar..
Flu Activity Nicht verfügbar..
METAR KFOD 281435Z 12015G19KT 3SM FEW008 BKN016 OVC021 17/15 A2990 RMK AO1 LTG DSNT SE P0066
Druck 29.90 inch
Sichtweite 3.0 Meilen
Wolken Few 800 ft
Wolkig 1600 ft
Bedeckt 2100 ft
Taupunkt 59 °F
Feuchtigkeit 88%
Regen 4.59 inch
Schneehöhe Nicht verfügbar..
UV 1 von 12
Pollen 1.10 von 12
Luftqualität Nicht verfügbar..
Flu Activity Nicht verfügbar..
METAR KFOD 281435Z 12015G19KT 3SM FEW008 BKN016 OVC021 17/15 A2990 RMK AO1 LTG DSNT SE P0066

10-Day Weather Forecast

×

Almanac

Astronomie

Aug. 28, 2015 Aufgang Untergang
Genaue Zeit
Bürgerliche Dämmerung
Nautische Dämmerung
Astronomische Dämmerung
Mond
Länge des sichtbaren Lichts
Tageslänge
Tomorrow will be .
, % of the Moon is Illuminated

Heutige Rekorde

State Highs State Lows

Community

WunderPhotos

Upload Photos

1,850,386 Fotos hochgeladen!

WunderBlogs® & News

Nearby

Luftqualität

  Luftqualität LQ Index Schadstoff
Not available.

Schneehöhe

Station Depth Höhe

Erdbebenaktivität

Stadt Distance Mag. Time & Date
Minimum magnitude displayed is 2.5.

küstennahe Wassertemperaturen

Ort Temperatur

Stations

Wetterstationen in der Umgebung

Stationsstandort Temp. Windchill Taupunkt Feuchtigkeit Wind Precip. Höhe Aktualisiert Art